Time,TemperatureF,DewpointF,PressureIn,WindDirection,WindDirectionDegrees,WindSpeedMPH,WindSpeedGustMPH,Humidity,HourlyPrecipIn,Conditions,Clouds,dailyrainin,SoftwareType,DateUTC
2013-09-12 00:02:00,75.8,66.5,29.91,West,271,0.0,0.0,73,0.00,SCT,,0.00,WeatherDisplay:10.37,2013-09-12 05:02:00,
2013-09-12 00:07:00,75.6,66.7,29.92,WNW,294,0.0,0.0,74,0.00,SCT,,0.00,WeatherDisplay:10.37,2013-09-12 05:07:00,
2013-09-12 00:12:00,75.6,66.3,29.92,NNE,15,2.8,3.0,73,0.00,SCT,,0.00,WeatherDisplay:10.37,2013-09-12 05:12:00,
2013-09-12 00:17:00,75.8,66.1,29.92,NE,36,0.7,1.5,72,0.00,SCT,,0.00,WeatherDisplay:10.37,2013-09-12 05:17:00,
2013-09-12 00:22:00,76.1,66.4,29.91,WNW,301,0.3,1.1,72,0.00,BKN,,0.00,WeatherDisplay:10.37,2013-09-12 05:22:00,
2013-09-12 00:27:00,76.1,66.8,29.91,NNE,26,0.1,3.5,73,0.00,BKN,,0.00,WeatherDisplay:10.37,2013-09-12 05:27:00,
2013-09-12 00:32:00,76.1,67.2,29.91,NNW,331,0.0,3.0,74,0.00,BKN,,0.00,WeatherDisplay:10.37,2013-09-12 05:32:00,
2013-09-12 00:37:00,75.8,67.3,29.91,NW,311,0.0,0.0,75,0.00,BKN,,0.00,WeatherDisplay:10.37,2013-09-12 05:37:00,
2013-09-12 00:42:00,75.4,67.3,29.91,NW,311,0.0,0.0,76,0.00,BKN,,0.00,WeatherDisplay:10.37,2013-09-12 05:42:00,
2013-09-12 00:47:00,75.1,67.4,29.91,NE,46,2.7,2.7,77,0.00,BKN,,0.00,WeatherDisplay:10.37,2013-09-12 05:47:00,
2013-09-12 00:52:00,74.6,67.3,29.91,NE,46,0.0,0.0,78,0.00,BKN,,0.00,WeatherDisplay:10.37,2013-09-12 05:52:00,
2013-09-12 00:57:00,74.4,67.5,29.91,NW,317,1.5,1.5,79,0.00,BKN,,0.00,WeatherDisplay:10.37,2013-09-12 05:57:00,
2013-09-12 01:02:00,74.2,67.6,29.91,NW,317,0.3,1.1,80,0.00,SCT,,0.00,WeatherDisplay:10.37,2013-09-12 06:02:00,
2013-09-12 01:07:00,74.0,67.4,29.91,NW,317,0.0,0.0,80,0.00,SCT,,0.00,WeatherDisplay:10.37,2013-09-12 06:07:00,
2013-09-12 01:12:00,73.9,67.7,29.91,NW,317,0.0,1.1,81,0.00,SCT,,0.00,WeatherDisplay:10.37,2013-09-12 06:12:00,
2013-09-12 01:17:00,73.7,67.5,29.91,NW,317,0.0,0.0,81,0.00,SCT,,0.00,WeatherDisplay:10.37,2013-09-12 06:17:00,
2013-09-12 01:22:00,73.7,67.9,29.90,NW,317,0.0,1.1,82,0.00,CLR,,0.00,WeatherDisplay:10.37,2013-09-12 06:22:00,
2013-09-12 01:27:00,73.5,67.7,29.90,NW,317,0.1,1.1,82,0.00,CLR,,0.00,WeatherDisplay:10.37,2013-09-12 06:27:00,
2013-09-12 01:32:00,73.3,67.8,29.91,NW,317,0.0,0.0,83,0.00,CLR,,0.00,WeatherDisplay:10.37,2013-09-12 06:32:00,
2013-09-12 01:37:00,73.2,67.7,29.91,NW,317,0.0,0.0,83,0.00,CLR,,0.00,WeatherDisplay:10.37,2013-09-12 06:37:00,
2013-09-12 01:42:00,73.0,67.9,29.91,NW,317,0.0,0.0,84,0.00,-RA,,0.00,WeatherDisplay:10.37,2013-09-12 06:42:00,
2013-09-12 01:47:00,73.0,67.9,29.91,NW,317,0.0,0.0,84,0.00,-RA,,0.00,WeatherDisplay:10.37,2013-09-12 06:47:00,
2013-09-12 01:52:00,72.8,67.7,29.91,NW,317,0.0,0.0,84,0.00,-RA,,0.00,WeatherDisplay:10.37,2013-09-12 06:52:00,
2013-09-12 01:57:00,72.8,67.7,29.91,NW,317,0.0,0.0,84,0.00,-RA,,0.00,WeatherDisplay:10.37,2013-09-12 06:57:00,
2013-09-12 02:02:00,72.7,67.6,29.91,NW,317,0.0,0.0,84,0.00,CLR,,0.00,WeatherDisplay:10.37,2013-09-12 07:02:00,
2013-09-12 02:07:00,72.7,67.9,29.91,NW,317,0.0,0.0,85,0.00,CLR,,0.00,WeatherDisplay:10.37,2013-09-12 07:07:00,
2013-09-12 02:12:00,72.7,67.9,29.91,NW,317,0.0,0.0,85,0.00,CLR,,0.00,WeatherDisplay:10.37,2013-09-12 07:12:00,
2013-09-12 02:17:00,72.7,67.9,29.91,NW,317,2.0,2.0,85,0.00,CLR,,0.00,WeatherDisplay:10.37,2013-09-12 07:17:00,
2013-09-12 02:22:00,72.7,68.3,29.91,NW,317,0.0,1.1,86,0.00,CLR,,0.00,WeatherDisplay:10.37,2013-09-12 07:22:00,
2013-09-12 02:27:00,72.5,68.1,29.90,NW,317,0.0,0.0,86,0.00,CLR,,0.00,WeatherDisplay:10.37,2013-09-12 07:27:00,
2013-09-12 02:32:00,72.5,68.1,29.89,NW,317,0.0,0.0,86,0.00,CLR,,0.00,WeatherDisplay:10.37,2013-09-12 07:32:00,
2013-09-12 02:37:00,72.3,67.9,29.89,NW,317,0.0,0.0,86,0.00,CLR,,0.00,WeatherDisplay:10.37,2013-09-12 07:37:00,
2013-09-12 02:42:00,72.3,67.9,29.89,NW,317,0.0,0.0,86,0.00,CLR,,0.00,WeatherDisplay:10.37,2013-09-12 07:42:00,
2013-09-12 02:47:00,72.3,68.2,29.89,NW,317,0.0,1.1,87,0.00,CLR,,0.00,WeatherDisplay:10.37,2013-09-12 07:47:00,
2013-09-12 02:52:00,72.3,68.2,29.89,NW,317,0.0,0.0,87,0.00,CLR,,0.00,WeatherDisplay:10.37,2013-09-12 07:52:00,
2013-09-12 02:57:00,72.3,68.2,29.89,NW,317,0.0,0.0,87,0.00,CLR,,0.00,WeatherDisplay:10.37,2013-09-12 07:57:00,
2013-09-12 03:02:00,72.3,68.2,29.89,NW,317,0.0,0.0,87,0.00,SCT,,0.00,WeatherDisplay:10.37,2013-09-12 08:02:00,
2013-09-12 03:07:00,72.1,68.0,29.89,NW,317,0.0,0.0,87,0.00,SCT,,0.00,WeatherDisplay:10.37,2013-09-12 08:07:00,
2013-09-12 03:12:00,72.1,68.0,29.90,NW,317,0.0,0.0,87,0.00,SCT,,0.00,WeatherDisplay:10.37,2013-09-12 08:12:00,
2013-09-12 03:17:00,72.1,68.0,29.90,NW,317,0.0,0.0,87,0.00,SCT,,0.00,WeatherDisplay:10.37,2013-09-12 08:17:00,
2013-09-12 03:23:00,72.1,68.0,29.90,NW,317,0.0,0.0,87,0.00,SCT,,0.00,WeatherDisplay:10.37,2013-09-12 08:23:00,
2013-09-12 03:28:00,72.1,68.0,29.90,NW,317,0.0,0.0,87,0.00,SCT,,0.00,WeatherDisplay:10.37,2013-09-12 08:28:00,
2013-09-12 03:33:00,72.1,68.0,29.90,NW,317,0.0,0.0,87,0.00,SCT,,0.00,WeatherDisplay:10.37,2013-09-12 08:33:00,
2013-09-12 03:38:00,72.1,68.0,29.90,NW,317,0.0,0.0,87,0.00,SCT,,0.00,WeatherDisplay:10.37,2013-09-12 08:38:00,
2013-09-12 03:43:00,72.1,68.0,29.91,NW,317,0.0,0.0,87,0.00,CLR,,0.00,WeatherDisplay:10.37,2013-09-12 08:43:00,
2013-09-12 03:48:00,72.1,68.0,29.90,NW,317,0.0,0.0,87,0.00,CLR,,0.00,WeatherDisplay:10.37,2013-09-12 08:48:00,
2013-09-12 03:53:00,72.1,68.0,29.90,NW,317,0.0,0.0,87,0.00,CLR,,0.00,WeatherDisplay:10.37,2013-09-12 08:53:00,
2013-09-12 03:58:00,72.1,68.0,29.90,NW,317,0.0,0.0,87,0.00,CLR,,0.00,WeatherDisplay:10.37,2013-09-12 08:58:00,
2013-09-12 04:03:00,72.0,67.9,29.91,NW,317,0.0,0.0,87,0.00,SCT,,0.00,WeatherDisplay:10.37,2013-09-12 09:03:00,
2013-09-12 04:08:00,72.0,67.9,29.90,NW,317,0.0,0.0,87,0.00,SCT,,0.00,WeatherDisplay:10.37,2013-09-12 09:08:00,
2013-09-12 04:13:00,72.0,67.9,29.91,NW,317,0.2,1.1,87,0.00,SCT,,0.00,WeatherDisplay:10.37,2013-09-12 09:13:00,
2013-09-12 04:18:00,72.0,67.9,29.91,West,273,1.4,3.5,87,0.00,SCT,,0.00,WeatherDisplay:10.37,2013-09-12 09:18:00,
2013-09-12 04:23:00,71.8,68.1,29.92,WSW,246,4.5,5.8,88,0.00,SCT,,0.00,WeatherDisplay:10.37,2013-09-12 09:23:00,
2013-09-12 04:28:00,71.8,68.1,29.92,WNW,293,3.3,5.8,88,0.00,SCT,,0.00,WeatherDisplay:10.37,2013-09-12 09:28:00,
2013-09-12 04:33:00,71.8,68.1,29.92,NW,307,2.5,4.6,88,0.00,SCT,,0.00,WeatherDisplay:10.37,2013-09-12 09:33:00,
2013-09-12 04:38:00,72.0,68.2,29.92,West,269,6.4,8.1,88,0.00,SCT,,0.00,WeatherDisplay:10.37,2013-09-12 09:38:00,
2013-09-12 04:43:00,72.0,68.2,29.92,NW,304,2.3,5.8,88,0.00,BKN,,0.00,WeatherDisplay:10.37,2013-09-12 09:43:00,
2013-09-12 04:48:00,72.0,68.2,29.92,NNE,21,3.3,7.5,88,0.00,BKN,,0.00,WeatherDisplay:10.37,2013-09-12 09:48:00,
2013-09-12 04:53:00,72.0,68.2,29.92,NNW,348,3.1,6.0,88,0.00,BKN,,0.00,WeatherDisplay:10.37,2013-09-12 09:53:00,
2013-09-12 04:58:00,71.8,68.1,29.92,NNW,330,4.2,5.8,88,0.01,RA,,0.01,WeatherDisplay:10.37,2013-09-12 09:58:00,
2013-09-12 05:03:00,71.8,68.4,29.91,West,270,5.1,5.8,89,0.01,-RA,,0.01,WeatherDisplay:10.37,2013-09-12 10:03:00,
2013-09-12 05:08:00,71.6,68.2,29.91,WNW,290,5.7,5.8,89,0.01,-RA,,0.01,WeatherDisplay:10.37,2013-09-12 10:08:00,
2013-09-12 05:13:00,71.5,68.1,29.91,NNW,329,2.1,4.6,89,0.01,-RA,,0.01,WeatherDisplay:10.37,2013-09-12 10:13:00,
2013-09-12 05:18:00,71.3,67.9,29.91,NNW,335,2.8,6.0,89,0.02,-RA,,0.02,WeatherDisplay:10.37,2013-09-12 10:18:00,
2013-09-12 05:23:00,70.9,67.5,29.91,North,5,7.5,10.4,89,0.02,RA,,0.02,WeatherDisplay:10.37,2013-09-12 10:23:00,
2013-09-12 05:28:00,70.6,66.9,29.90,NW,319,5.6,5.6,88,0.02,OVC,,0.02,WeatherDisplay:10.37,2013-09-12 10:28:00,
2013-09-12 05:33:00,70.4,66.7,29.91,North,5,2.8,4.6,88,0.02,OVC,,0.02,WeatherDisplay:10.37,2013-09-12 10:33:00,
2013-09-12 05:38:00,70.3,66.6,29.90,NNE,20,1.1,4.6,88,0.02,OVC,,0.02,WeatherDisplay:10.37,2013-09-12 10:38:00,
2013-09-12 05:43:00,70.1,66.4,29.90,NNE,20,0.0,0.0,88,0.02,-RA,,0.02,WeatherDisplay:10.37,2013-09-12 10:43:00,
2013-09-12 05:48:00,69.9,66.5,29.91,NNE,20,0.0,0.0,89,0.02,-RA,,0.02,WeatherDisplay:10.37,2013-09-12 10:48:00,
2013-09-12 05:53:00,69.8,66.4,29.91,NNE,20,0.0,0.0,89,0.02,-RA,,0.02,WeatherDisplay:10.37,2013-09-12 10:53:00,
2013-09-12 05:58:00,69.6,66.2,29.91,NNE,20,0.0,0.0,89,0.01,-RA,,0.02,WeatherDisplay:10.37,2013-09-12 10:58:00,
2013-09-12 06:03:00,69.6,66.2,29.91,NNE,20,0.0,0.0,89,0.01,-RA,,0.02,WeatherDisplay:10.37,2013-09-12 11:03:00,
2013-09-12 06:08:00,69.4,66.3,29.91,NNE,20,0.0,0.0,90,0.01,-RA,,0.02,WeatherDisplay:10.37,2013-09-12 11:08:00,
2013-09-12 06:13:00,69.4,66.3,29.92,NNE,20,0.0,0.0,90,0.01,-RA,,0.02,WeatherDisplay:10.37,2013-09-12 11:13:00,
2013-09-12 06:18:00,69.3,66.2,29.91,NNE,20,0.0,0.0,90,0.00,-RA,,0.02,WeatherDisplay:10.37,2013-09-12 11:18:00,
2013-09-12 06:23:00,69.3,66.2,29.92,NNE,20,0.0,0.0,90,0.00,-RA,,0.02,WeatherDisplay:10.37,2013-09-12 11:23:00,
2013-09-12 06:28:00,69.3,66.2,29.92,NNE,20,0.0,0.0,90,0.00,-RA,,0.02,WeatherDisplay:10.37,2013-09-12 11:28:00,
2013-09-12 06:33:00,69.1,66.0,29.92,NNE,20,0.0,0.0,90,0.00,-RA,,0.02,WeatherDisplay:10.37,2013-09-12 11:33:00,
2013-09-12 06:38:00,69.1,66.0,29.92,NNE,20,0.0,0.0,90,0.00,-RA,,0.02,WeatherDisplay:10.37,2013-09-12 11:38:00,
2013-09-12 06:43:00,69.1,66.0,29.92,NNE,20,0.0,0.0,90,0.00,CLR,,0.02,WeatherDisplay:10.37,2013-09-12 11:43:00,
2013-09-12 06:48:00,69.1,66.4,29.92,NNE,20,0.0,0.0,91,0.00,CLR,,0.02,WeatherDisplay:10.37,2013-09-12 11:48:00,
2013-09-12 06:53:00,69.3,66.6,29.92,NNE,20,0.0,0.0,91,0.00,CLR,,0.02,WeatherDisplay:10.37,2013-09-12 11:53:00,
2013-09-12 06:58:00,69.3,66.6,29.93,NNE,20,0.0,1.1,91,0.00,CLR,,0.02,WeatherDisplay:10.37,2013-09-12 11:58:00,
2013-09-12 07:03:00,69.4,66.7,29.93,SW,236,0.0,0.0,91,0.00,CLR,,0.02,WeatherDisplay:10.37,2013-09-12 12:03:00,
2013-09-12 07:08:00,69.4,66.7,29.94,West,267,0.0,4.6,91,0.00,CLR,,0.02,WeatherDisplay:10.37,2013-09-12 12:08:00,
2013-09-12 07:13:00,69.6,66.9,29.94,West,267,0.0,0.0,91,0.00,CLR,,0.02,WeatherDisplay:10.37,2013-09-12 12:13:00,
2013-09-12 07:18:00,69.4,66.7,29.94,West,269,0.0,1.1,91,0.00,CLR,,0.02,WeatherDisplay:10.37,2013-09-12 12:18:00,
2013-09-12 07:23:00,69.4,66.7,29.94,West,269,0.0,0.0,91,0.00,CLR,,0.02,WeatherDisplay:10.37,2013-09-12 12:23:00,
2013-09-12 07:28:00,69.4,66.7,29.94,South,178,0.0,1.1,91,0.00,CLR,,0.02,WeatherDisplay:10.37,2013-09-12 12:28:00,
2013-09-12 07:33:00,69.4,66.7,29.93,South,178,0.0,0.0,91,0.00,CLR,,0.02,WeatherDisplay:10.37,2013-09-12 12:33:00,
2013-09-12 07:38:00,69.4,66.7,29.94,WSW,246,1.1,3.5,91,0.00,CLR,,0.02,WeatherDisplay:10.37,2013-09-12 12:38:00,
2013-09-12 07:43:00,69.4,66.7,29.94,WSW,238,0.2,1.5,91,0.00,-RA,,0.02,WeatherDisplay:10.37,2013-09-12 12:43:00,
2013-09-12 07:48:00,69.6,66.9,29.95,West,279,1.8,1.8,91,0.00,-RA,,0.02,WeatherDisplay:10.37,2013-09-12 12:48:00,
2013-09-12 07:53:00,69.6,66.9,29.95,West,275,0.2,1.1,91,0.00,-RA,,0.02,WeatherDisplay:10.37,2013-09-12 12:53:00,
2013-09-12 07:58:00,69.6,66.9,29.94,SE,132,0.5,3.5,91,0.00,-RA,,0.02,WeatherDisplay:10.37,2013-09-12 12:58:00,
2013-09-12 08:03:00,69.8,67.1,29.95,West,280,0.5,1.5,91,0.00,-RA,,0.02,WeatherDisplay:10.37,2013-09-12 13:03:00,
2013-09-12 08:08:00,69.8,67.1,29.95,ESE,117,0.1,1.1,91,0.00,-RA,,0.02,WeatherDisplay:10.37,2013-09-12 13:08:00,
2013-09-12 08:13:00,69.9,67.2,29.95,WSW,250,0.0,1.1,91,0.00,-RA,,0.02,WeatherDisplay:10.37,2013-09-12 13:13:00,
2013-09-12 08:18:00,69.9,67.2,29.95,South,189,0.0,0.0,91,0.00,-RA,,0.02,WeatherDisplay:10.37,2013-09-12 13:18:00,
2013-09-12 08:23:00,69.9,67.2,29.95,NE,34,0.9,3.5,91,0.00,-RA,,0.02,WeatherDisplay:10.37,2013-09-12 13:23:00,
2013-09-12 08:28:00,70.1,67.3,29.95,NNE,22,0.0,0.0,91,0.00,-RA,,0.02,WeatherDisplay:10.37,2013-09-12 13:28:00,
2013-09-12 08:33:00,70.1,67.3,29.95,WNW,283,1.4,3.5,91,0.01,-RA,,0.03,WeatherDisplay:10.37,2013-09-12 13:33:00,
2013-09-12 08:38:00,70.3,67.5,29.94,North,5,0.6,1.1,91,0.01,-RA,,0.03,WeatherDisplay:10.37,2013-09-12 13:38:00,
2013-09-12 08:43:00,70.3,67.5,29.94,SSW,194,0.9,1.1,91,0.01,-RA,,0.03,WeatherDisplay:10.37,2013-09-12 13:43:00,
2013-09-12 08:48:00,70.4,67.6,29.94,NW,313,4.3,4.3,91,0.01,-RA,,0.03,WeatherDisplay:10.37,2013-09-12 13:48:00,
2013-09-12 08:53:00,70.4,67.6,29.94,West,260,1.0,3.5,91,0.01,-RA,,0.03,WeatherDisplay:10.37,2013-09-12 13:53:00,
2013-09-12 08:58:00,70.4,67.6,29.94,SW,227,0.8,3.5,91,0.01,-RA,,0.03,WeatherDisplay:10.37,2013-09-12 13:58:00,
2013-09-12 09:03:00,70.6,67.8,29.94,WSW,246,0.0,0.0,91,0.01,CLR,,0.03,WeatherDisplay:10.37,2013-09-12 14:03:00,
2013-09-12 09:08:00,70.6,67.8,29.94,WSW,245,0.0,1.1,91,0.01,CLR,,0.03,WeatherDisplay:10.37,2013-09-12 14:08:00,
2013-09-12 09:13:00,70.6,67.8,29.94,East,82,0.0,0.0,91,0.01,CLR,,0.03,WeatherDisplay:10.37,2013-09-12 14:13:00,
2013-09-12 09:18:00,70.6,67.8,29.94,West,267,0.0,0.0,91,0.01,CLR,,0.03,WeatherDisplay:10.37,2013-09-12 14:18:00,
2013-09-12 09:23:00,70.8,68.0,29.94,West,267,0.1,1.1,91,0.01,CLR,,0.03,WeatherDisplay:10.37,2013-09-12 14:23:00,
2013-09-12 09:28:00,70.8,68.0,29.94,WNW,296,0.9,1.5,91,0.01,CLR,,0.03,WeatherDisplay:10.37,2013-09-12 14:28:00,
2013-09-12 09:33:00,70.9,68.1,29.94,WSW,256,0.0,0.0,91,0.00,CLR,,0.03,WeatherDisplay:10.37,2013-09-12 14:33:00,
2013-09-12 09:38:00,71.1,68.0,29.94,SSW,211,0.0,1.1,90,0.00,CLR,,0.03,WeatherDisplay:10.37,2013-09-12 14:38:00,
2013-09-12 09:43:00,71.1,68.0,29.95,SW,219,0.0,0.0,90,0.00,CLR,,0.03,WeatherDisplay:10.37,2013-09-12 14:43:00,
2013-09-12 09:48:00,71.3,68.2,29.94,SW,219,0.0,1.1,90,0.00,CLR,,0.03,WeatherDisplay:10.37,2013-09-12 14:48:00,
2013-09-12 09:53:00,71.3,68.2,29.94,SE,142,0.0,0.0,90,0.00,CLR,,0.03,WeatherDisplay:10.37,2013-09-12 14:53:00,
2013-09-12 09:58:00,71.3,67.9,29.94,WNW,284,1.0,4.6,89,0.00,CLR,,0.03,WeatherDisplay:10.37,2013-09-12 14:58:00,
2013-09-12 10:03:00,71.3,67.9,29.94,WNW,286,1.2,1.5,89,0.00,CLR,,0.03,WeatherDisplay:10.37,2013-09-12 15:03:00,
2013-09-12 10:09:00,71.3,67.9,29.94,West,270,1.9,4.6,89,0.00,CLR,,0.03,WeatherDisplay:10.37,2013-09-12 15:09:00,
2013-09-12 10:14:00,71.3,67.6,29.94,West,259,0.0,0.0,88,0.00,CLR,,0.03,WeatherDisplay:10.37,2013-09-12 15:14:00,
2013-09-12 10:19:00,71.3,67.2,29.94,WNW,292,1.6,4.6,87,0.00,CLR,,0.03,WeatherDisplay:10.37,2013-09-12 15:19:00,
2013-09-12 10:24:00,71.5,67.4,29.93,WSW,243,1.6,3.5,87,0.00,CLR,,0.03,WeatherDisplay:10.37,2013-09-12 15:24:00,
2013-09-12 10:29:00,71.5,67.1,29.93,West,272,0.3,1.1,86,0.00,CLR,,0.03,WeatherDisplay:10.37,2013-09-12 15:29:00,
2013-09-12 10:34:00,71.6,67.2,29.94,WNW,292,2.2,4.6,86,0.00,CLR,,0.03,WeatherDisplay:10.37,2013-09-12 15:34:00,
2013-09-12 10:39:00,71.5,66.8,29.94,WNW,295,0.9,1.1,85,0.00,CLR,,0.03,WeatherDisplay:10.37,2013-09-12 15:39:00,
2013-09-12 10:44:00,71.5,66.8,29.94,SW,219,0.4,1.5,85,0.00,CLR,,0.03,WeatherDisplay:10.37,2013-09-12 15:44:00,
2013-09-12 10:49:00,71.5,66.8,29.94,SW,219,0.0,0.0,85,0.00,CLR,,0.03,WeatherDisplay:10.37,2013-09-12 15:49:00,
2013-09-12 10:54:00,71.6,66.8,29.94,WNW,300,0.7,1.5,85,0.00,CLR,,0.03,WeatherDisplay:10.37,2013-09-12 15:54:00,
2013-09-12 10:59:00,71.8,67.0,29.94,South,173,0.2,1.1,85,0.00,CLR,,0.03,WeatherDisplay:10.37,2013-09-12 15:59:00,
2013-09-12 11:04:00,72.0,67.2,29.94,WNW,285,1.9,4.6,85,0.00,-RA,,0.03,WeatherDisplay:10.37,2013-09-12 16:04:00,
2013-09-12 11:09:00,72.1,67.0,29.94,WNW,302,3.0,4.6,84,0.00,-RA,,0.03,WeatherDisplay:10.37,2013-09-12 16:09:00,
2013-09-12 11:14:00,72.3,67.2,29.94,WNW,300,2.1,4.6,84,0.00,-RA,,0.03,WeatherDisplay:10.37,2013-09-12 16:14:00,
2013-09-12 11:19:00,72.5,67.4,29.93,West,261,2.3,4.6,84,0.00,-RA,,0.03,WeatherDisplay:10.37,2013-09-12 16:19:00,
2013-09-12 11:24:00,72.7,67.2,29.93,NW,323,4.1,5.8,83,0.00,-RA,,0.03,WeatherDisplay:10.37,2013-09-12 16:24:00,
2013-09-12 11:29:00,72.8,67.0,29.93,North,355,4.3,4.6,82,0.00,-RA,,0.03,WeatherDisplay:10.37,2013-09-12 16:29:00,
2013-09-12 11:34:00,73.3,67.8,29.93,West,275,4.9,10.4,83,0.00,-RA,,0.03,WeatherDisplay:10.37,2013-09-12 16:34:00,
2013-09-12 11:39:00,73.9,68.1,29.93,West,279,3.4,4.6,82,0.00,-RA,,0.03,WeatherDisplay:10.37,2013-09-12 16:39:00,
2013-09-12 11:44:00,74.4,67.8,29.93,WSW,249,9.1,9.2,80,0.00,-RA,,0.03,WeatherDisplay:10.37,2013-09-12 16:44:00,
2013-09-12 11:49:00,74.4,67.5,29.93,North,355,1.5,3.5,79,0.00,-RA,,0.03,WeatherDisplay:10.37,2013-09-12 16:49:00,
2013-09-12 11:54:00,74.7,68.1,29.93,West,267,2.1,3.5,80,0.00,-RA,,0.03,WeatherDisplay:10.37,2013-09-12 16:54:00,
2013-09-12 11:59:00,74.9,67.6,29.93,WNW,301,5.9,8.1,78,0.00,-RA,,0.03,WeatherDisplay:10.37,2013-09-12 16:59:00,
2013-09-12 12:04:00,75.1,67.4,29.93,WSW,239,1.8,4.6,77,0.00,CLR,,0.03,WeatherDisplay:10.37,2013-09-12 17:04:00,
2013-09-12 12:09:00,75.3,67.2,29.93,West,265,7.1,8.1,76,0.00,CLR,,0.03,WeatherDisplay:10.37,2013-09-12 17:09:00,
2013-09-12 12:14:00,75.4,66.9,29.93,East,81,2.5,5.8,75,0.00,CLR,,0.03,WeatherDisplay:10.37,2013-09-12 17:14:00,
2013-09-12 12:19:00,75.6,67.1,29.92,West,275,4.1,5.8,75,0.00,CLR,,0.03,WeatherDisplay:10.37,2013-09-12 17:19:00,
2013-09-12 12:24:00,76.0,67.5,29.92,NNW,333,6.9,8.1,75,0.00,CLR,,0.03,WeatherDisplay:10.37,2013-09-12 17:24:00,
2013-09-12 12:29:00,76.5,67.6,29.92,NW,325,0.1,1.1,74,0.00,CLR,,0.03,WeatherDisplay:10.37,2013-09-12 17:29:00,
2013-09-12 12:34:00,77.2,68.7,29.92,NNW,332,0.0,0.0,75,0.00,CLR,,0.03,WeatherDisplay:10.37,2013-09-12 17:34:00,
2013-09-12 12:39:00,77.4,67.3,29.92,NNW,331,5.5,8.1,71,0.00,CLR,,0.03,WeatherDisplay:10.37,2013-09-12 17:39:00,
2013-09-12 12:44:00,77.9,67.7,29.92,North,349,4.9,6.0,71,0.00,CLR,,0.03,WeatherDisplay:10.37,2013-09-12 17:44:00,
2013-09-12 12:49:00,78.3,67.3,29.91,WNW,285,4.7,5.8,69,0.00,CLR,,0.03,WeatherDisplay:10.37,2013-09-12 17:49:00,
2013-09-12 12:54:00,78.8,67.8,29.91,West,274,0.2,1.1,69,0.00,CLR,,0.03,WeatherDisplay:10.37,2013-09-12 17:54:00,
2013-09-12 12:59:00,79.4,67.0,29.91,NW,312,3.6,4.6,66,0.00,CLR,,0.03,WeatherDisplay:10.37,2013-09-12 17:59:00,
2013-09-12 13:04:00,79.9,66.2,29.91,NNW,346,3.6,5.8,63,0.00,CLR,,0.03,WeatherDisplay:10.37,2013-09-12 18:04:00,
2013-09-12 13:09:00,80.7,66.9,29.90,NNE,19,4.2,8.1,63,0.00,CLR,,0.03,WeatherDisplay:10.37,2013-09-12 18:09:00,
2013-09-12 13:14:00,81.2,66.9,29.90,WNW,294,0.8,5.8,62,0.00,CLR,,0.03,WeatherDisplay:10.37,2013-09-12 18:14:00,
2013-09-12 13:19:00,81.4,64.2,29.90,NNW,331,11.5,15.0,56,0.00,CLR,,0.03,WeatherDisplay:10.37,2013-09-12 18:19:00,
2013-09-12 13:24:00,81.4,64.2,29.90,NW,314,10.8,10.8,56,0.00,CLR,,0.03,WeatherDisplay:10.37,2013-09-12 18:24:00,
2013-09-12 13:29:00,81.6,63.9,29.90,WSW,250,1.6,6.0,55,0.00,CLR,,0.03,WeatherDisplay:10.37,2013-09-12 18:29:00,
2013-09-12 13:34:00,82.0,64.2,29.89,WNW,303,3.8,8.1,55,0.00,CLR,,0.03,WeatherDisplay:10.37,2013-09-12 18:34:00,
2013-09-12 13:39:00,82.0,62.1,29.89,NW,309,2.5,3.5,51,0.00,CLR,,0.03,WeatherDisplay:10.37,2013-09-12 18:39:00,
2013-09-12 13:44:00,82.4,62.5,29.89,WNW,282,9.9,9.9,51,0.00,CLR,,0.03,WeatherDisplay:10.37,2013-09-12 18:44:00,
2013-09-12 13:49:00,82.6,62.1,29.88,WNW,286,2.0,9.2,50,0.00,CLR,,0.03,WeatherDisplay:10.37,2013-09-12 18:49:00,
2013-09-12 13:54:00,83.0,60.1,29.88,WNW,295,5.1,5.8,46,0.00,CLR,,0.03,WeatherDisplay:10.37,2013-09-12 18:54:00,
2013-09-12 13:59:00,83.2,58.4,29.88,West,269,8.2,8.2,43,0.00,CLR,,0.03,WeatherDisplay:10.37,2013-09-12 18:59:00,
2013-09-12 14:04:00,83.4,59.8,29.88,WSW,252,1.2,4.5,45,0.00,CLR,,0.03,WeatherDisplay:10.37,2013-09-12 19:04:00,
2013-09-12 14:09:00,83.6,61.2,29.87,WNW,294,1.7,3.5,47,0.00,CLR,,0.03,WeatherDisplay:10.37,2013-09-12 19:09:00,
2013-09-12 14:14:00,83.8,59.6,29.87,WNW,296,8.8,9.2,44,0.00,CLR,,0.03,WeatherDisplay:10.37,2013-09-12 19:14:00,
2013-09-12 14:19:00,83.4,59.2,29.87,WNW,289,9.9,11.5,44,0.00,CLR,,0.03,WeatherDisplay:10.37,2013-09-12 19:19:00,
2013-09-12 14:24:00,83.0,58.8,29.87,NE,43,7.5,13.8,44,0.00,CLR,,0.03,WeatherDisplay:10.37,2013-09-12 19:24:00,
2013-09-12 14:29:00,83.2,59.0,29.86,NNW,333,3.9,4.6,44,0.00,CLR,,0.03,WeatherDisplay:10.37,2013-09-12 19:29:00,
2013-09-12 14:34:00,83.4,59.8,29.85,West,274,0.8,1.1,45,0.00,CLR,,0.03,WeatherDisplay:10.37,2013-09-12 19:34:00,
2013-09-12 14:39:00,83.8,60.2,29.85,North,9,6.1,10.4,45,0.00,CLR,,0.03,WeatherDisplay:10.37,2013-09-12 19:39:00,
2013-09-12 14:44:00,84.1,60.5,29.85,NE,36,3.6,6.0,45,0.00,SCT,,0.03,WeatherDisplay:10.37,2013-09-12 19:44:00,
2013-09-12 14:49:00,84.0,60.4,29.85,WSW,257,9.1,10.4,45,0.00,SCT,,0.03,WeatherDisplay:10.37,2013-09-12 19:49:00,
2013-09-12 14:54:00,83.8,60.8,29.85,NW,311,6.9,15.0,46,0.00,SCT,,0.03,WeatherDisplay:10.37,2013-09-12 19:54:00,
2013-09-12 14:59:00,83.8,60.2,29.85,WNW,292,3.9,9.2,45,0.00,SCT,,0.03,WeatherDisplay:10.37,2013-09-12 19:59:00,
2013-09-12 15:04:00,83.6,60.6,29.85,NNW,331,6.7,10.4,46,0.00,SCT,,0.03,WeatherDisplay:10.37,2013-09-12 20:04:00,
2013-09-12 15:09:00,83.4,60.4,29.85,NE,54,6.5,8.1,46,0.00,SCT,,0.03,WeatherDisplay:10.37,2013-09-12 20:09:00,
2013-09-12 15:14:00,83.8,60.8,29.84,WNW,284,5.9,8.1,46,0.00,SCT,,0.03,WeatherDisplay:10.37,2013-09-12 20:14:00,
2013-09-12 15:19:00,84.1,59.8,29.85,West,269,14.9,14.9,44,0.00,SCT,,0.03,WeatherDisplay:10.37,2013-09-12 20:19:00,
2013-09-12 15:24:00,84.3,58.7,29.85,WSW,250,11.7,16.1,42,0.00,SCT,,0.03,WeatherDisplay:10.37,2013-09-12 20:24:00,
2013-09-12 15:29:00,84.3,59.4,29.84,SSW,193,7.1,7.1,43,0.00,SCT,,0.03,WeatherDisplay:10.37,2013-09-12 20:29:00,
2013-09-12 15:34:00,84.7,59.7,29.84,NNW,329,3.1,11.5,43,0.00,SCT,,0.03,WeatherDisplay:10.37,2013-09-12 20:34:00,
2013-09-12 15:39:00,84.9,59.9,29.84,NW,306,12.8,12.8,43,0.00,SCT,,0.03,WeatherDisplay:10.37,2013-09-12 20:39:00,
2013-09-12 15:44:00,85.3,60.3,29.84,WSW,258,8.5,8.5,43,0.00,SCT,,0.03,WeatherDisplay:10.37,2013-09-12 20:44:00,
2013-09-12 15:49:00,85.3,60.3,29.83,WNW,286,9.7,15.0,43,0.00,SCT,,0.03,WeatherDisplay:10.37,2013-09-12 20:49:00,
2013-09-12 15:54:00,85.1,58.1,29.83,West,266,14.3,18.4,40,0.00,SCT,,0.03,WeatherDisplay:10.37,2013-09-12 20:54:00,
2013-09-12 15:59:00,84.3,58.0,29.83,NNE,26,8.7,15.0,41,0.00,SCT,,0.03,WeatherDisplay:10.37,2013-09-12 20:59:00,
2013-09-12 16:04:00,83.8,58.3,29.83,WSW,249,7.2,10.5,42,0.00,SCT,,0.03,WeatherDisplay:10.37,2013-09-12 21:04:00,
2013-09-12 16:09:00,83.2,58.4,29.83,West,279,7.8,9.2,43,0.00,SCT,,0.03,WeatherDisplay:10.37,2013-09-12 21:09:00,
2013-09-12 16:14:00,82.8,58.7,29.83,SSW,199,1.9,15.0,44,0.00,SCT,,0.03,WeatherDisplay:10.37,2013-09-12 21:14:00,
2013-09-12 16:19:00,82.6,57.8,29.83,WNW,292,16.1,19.6,43,0.00,SCT,,0.03,WeatherDisplay:10.37,2013-09-12 21:19:00,
2013-09-12 16:24:00,82.8,58.0,29.83,North,11,6.3,13.8,43,0.00,SCT,,0.03,WeatherDisplay:10.37,2013-09-12 21:24:00,
2013-09-12 16:29:00,82.6,56.5,29.82,WNW,288,7.6,13.8,41,0.00,SCT,,0.03,WeatherDisplay:10.37,2013-09-12 21:29:00,
2013-09-12 16:34:00,82.6,55.1,29.82,North,11,11.9,15.0,39,0.00,SCT,,0.03,WeatherDisplay:10.37,2013-09-12 21:34:00,
2013-09-12 16:39:00,83.0,54.8,29.82,NW,306,9.1,15.0,38,0.00,SCT,,0.03,WeatherDisplay:10.37,2013-09-12 21:39:00,
2013-09-12 16:44:00,83.2,51.9,29.83,West,263,16.5,16.5,34,0.00,SCT,,0.03,WeatherDisplay:10.37,2013-09-12 21:44:00,
2013-09-12 16:49:00,82.8,50.8,29.83,West,276,11.9,11.9,33,0.00,SCT,,0.03,WeatherDisplay:10.37,2013-09-12 21:49:00,
2013-09-12 16:54:00,82.4,51.2,29.83,WNW,298,10.8,19.6,34,0.00,SCT,,0.03,WeatherDisplay:10.37,2013-09-12 21:54:00,
2013-09-12 16:59:00,82.0,50.9,29.83,NE,41,17.8,17.8,34,0.00,SCT,,0.03,WeatherDisplay:10.37,2013-09-12 21:59:00,
2013-09-12 17:04:00,81.6,51.3,29.83,North,360,19.8,29.9,35,0.00,CLR,,0.03,WeatherDisplay:10.37,2013-09-12 22:04:00,
2013-09-12 17:09:00,81.1,50.9,29.83,NW,317,8.6,18.4,35,0.00,CLR,,0.03,WeatherDisplay:10.37,2013-09-12 22:09:00,
2013-09-12 17:14:00,80.9,51.4,29.84,NNE,23,9.2,18.4,36,0.00,CLR,,0.03,WeatherDisplay:10.37,2013-09-12 22:14:00,
2013-09-12 17:19:00,80.5,49.5,29.84,NNW,345,17.5,18.4,34,0.00,CLR,,0.03,WeatherDisplay:10.37,2013-09-12 22:19:00,
2013-09-12 17:25:00,80.3,49.4,29.84,NNW,342,10.8,13.8,34,0.00,CLR,,0.03,WeatherDisplay:10.37,2013-09-12 22:25:00,
2013-09-12 17:30:00,80.1,49.2,29.84,North,5,9.9,15.0,34,0.00,CLR,,0.03,WeatherDisplay:10.37,2013-09-12 22:30:00,
2013-09-12 17:35:00,79.8,48.1,29.84,North,360,14.4,16.1,33,0.00,CLR,,0.03,WeatherDisplay:10.37,2013-09-12 22:35:00,
2013-09-12 17:40:00,79.8,48.9,29.85,NW,311,15.1,16.1,34,0.00,CLR,,0.03,WeatherDisplay:10.37,2013-09-12 22:40:00,
2013-09-12 17:45:00,79.4,48.6,29.86,NNW,332,17.0,25.0,34,0.00,CLR,,0.03,WeatherDisplay:10.37,2013-09-12 22:45:00,
2013-09-12 17:50:00,79.2,48.4,29.86,NW,319,12.0,21.0,34,0.00,CLR,,0.03,WeatherDisplay:10.37,2013-09-12 22:50:00,
2013-09-12 17:55:00,78.8,48.1,29.86,WSW,257,5.8,9.2,34,0.00,CLR,,0.03,WeatherDisplay:10.37,2013-09-12 22:55:00,
2013-09-12 18:00:00,78.6,47.9,29.86,NNW,339,12.1,12.1,34,0.00,CLR,,0.03,WeatherDisplay:10.37,2013-09-12 23:00:00,
2013-09-12 18:05:00,78.5,47.0,29.86,NNW,341,10.0,21.0,33,0.00,CLR,,0.03,WeatherDisplay:10.37,2013-09-12 23:05:00,
2013-09-12 18:10:00,78.3,47.6,29.86,NNW,338,13.0,20.0,34,0.00,CLR,,0.03,WeatherDisplay:10.37,2013-09-12 23:10:00,
2013-09-12 18:15:00,77.9,48.8,29.86,NW,324,17.0,21.0,36,0.00,CLR,,0.03,WeatherDisplay:10.37,2013-09-12 23:15:00,
2013-09-12 18:20:00,77.6,49.3,29.86,NW,324,7.0,15.0,37,0.00,CLR,,0.03,WeatherDisplay:10.37,2013-09-12 23:20:00,
2013-09-12 18:25:00,77.2,49.6,29.87,WNW,298,9.6,13.8,38,0.00,CLR,,0.03,WeatherDisplay:10.37,2013-09-12 23:25:00,
2013-09-12 18:30:00,76.8,50.0,29.87,WNW,303,6.3,9.2,39,0.00,CLR,,0.03,WeatherDisplay:10.37,2013-09-12 23:30:00,
2013-09-12 18:35:00,76.5,49.7,29.87,NNW,328,10.0,17.0,39,0.00,CLR,,0.03,WeatherDisplay:10.37,2013-09-12 23:35:00,
2013-09-12 18:40:00,76.1,50.0,29.88,NNW,340,8.0,18.0,40,0.00,CLR,,0.03,WeatherDisplay:10.37,2013-09-12 23:40:00,
2013-09-12 18:45:00,75.8,49.8,29.88,NNW,338,10.0,17.0,40,0.00,CLR,,0.03,WeatherDisplay:10.37,2013-09-12 23:45:00,
2013-09-12 18:50:00,75.4,50.1,29.88,NNW,343,6.0,11.0,41,0.00,CLR,,0.03,WeatherDisplay:10.37,2013-09-12 23:50:00,
2013-09-12 18:55:00,75.1,50.4,29.88,NW,306,0.8,5.8,42,0.00,CLR,,0.03,WeatherDisplay:10.37,2013-09-12 23:55:00,
2013-09-12 19:00:00,74.9,50.3,29.88,WNW,292,7.9,13.5,42,0.00,CLR,,0.03,WeatherDisplay:10.37,2013-09-13 00:00:00,
2013-09-12 19:05:00,74.6,50.0,29.88,NW,317,6.0,14.0,42,0.00,CLR,,0.03,WeatherDisplay:10.37,2013-09-13 00:05:00,
2013-09-12 19:10:00,74.2,50.3,29.88,NNW,331,6.0,11.0,43,0.00,CLR,,0.03,WeatherDisplay:10.37,2013-09-13 00:10:00,
2013-09-12 19:15:00,73.9,50.0,29.89,NNW,339,6.0,15.0,43,0.00,CLR,,0.03,WeatherDisplay:10.37,2013-09-13 00:15:00,
2013-09-12 19:20:00,73.7,50.4,29.89,NE,38,9.9,10.5,44,0.00,CLR,,0.03,WeatherDisplay:10.37,2013-09-13 00:20:00,
2013-09-12 19:25:00,73.3,50.1,29.89,NNW,327,10.2,10.4,44,0.00,CLR,,0.03,WeatherDisplay:10.37,2013-09-13 00:25:00,
2013-09-12 19:30:00,73.2,50.6,29.89,SE,130,4.2,8.1,45,0.00,CLR,,0.03,WeatherDisplay:10.37,2013-09-13 00:30:00,
2013-09-12 19:35:00,72.9,50.3,29.89,North,1,7.0,9.0,45,0.00,CLR,,0.03,WeatherDisplay:10.37,2013-09-13 00:35:00,
2013-09-12 19:40:00,72.7,50.7,29.89,NNW,340,1.0,11.0,46,0.00,CLR,,0.03,WeatherDisplay:10.37,2013-09-13 00:40:00,
2013-09-12 19:45:00,72.3,50.4,29.90,NW,315,8.0,11.0,46,0.00,CLR,,0.03,WeatherDisplay:10.37,2013-09-13 00:45:00,
2013-09-12 19:50:00,72.0,50.7,29.90,NNW,346,5.5,8.1,47,0.00,CLR,,0.03,WeatherDisplay:10.37,2013-09-13 00:50:00,
2013-09-12 19:55:00,71.6,50.3,29.90,NNW,346,7.2,8.1,47,0.00,CLR,,0.03,WeatherDisplay:10.37,2013-09-13 00:55:00,
2013-09-12 20:00:00,71.5,50.8,29.91,North,349,10.0,14.0,48,0.00,CLR,,0.03,WeatherDisplay:10.37,2013-09-13 01:00:00,
2013-09-12 20:05:00,71.3,52.2,29.92,NNW,340,10.0,18.0,51,0.00,CLR,,0.03,WeatherDisplay:10.37,2013-09-13 01:05:00,
2013-09-12 20:10:00,71.0,54.5,29.92,NNW,347,9.0,18.0,56,0.00,CLR,,0.03,WeatherDisplay:10.37,2013-09-13 01:10:00,
2013-09-12 20:15:00,70.8,55.8,29.93,North,3,8.0,14.0,59,0.00,CLR,,0.03,WeatherDisplay:10.37,2013-09-13 01:15:00,
2013-09-12 20:20:00,70.4,56.8,29.93,North,359,8.0,18.0,62,0.00,CLR,,0.03,WeatherDisplay:10.37,2013-09-13 01:20:00,
2013-09-12 20:25:00,69.9,57.6,29.93,NW,317,8.3,9.2,65,0.00,CLR,,0.03,WeatherDisplay:10.37,2013-09-13 01:25:00,
2013-09-12 20:30:00,69.7,58.2,29.94,NNE,12,10.0,17.0,67,0.00,CLR,,0.03,WeatherDisplay:10.37,2013-09-13 01:30:00,
2013-09-12 20:35:00,69.3,58.3,29.94,NNE,25,6.0,14.0,68,0.00,CLR,,0.03,WeatherDisplay:10.37,2013-09-13 01:35:00,
2013-09-12 20:40:00,69.1,58.5,29.94,NNE,17,12.0,14.0,69,0.00,CLR,,0.03,WeatherDisplay:10.37,2013-09-13 01:40:00,
2013-09-12 20:45:00,68.8,58.6,29.94,NNE,16,3.0,8.0,70,0.00,CLR,,0.03,WeatherDisplay:10.37,2013-09-13 01:45:00,
2013-09-12 20:50:00,68.4,58.6,29.94,NNE,13,6.6,8.1,71,0.00,CLR,,0.03,WeatherDisplay:10.37,2013-09-13 01:50:00,
2013-09-12 20:55:00,68.3,58.9,29.94,North,9,12.0,18.0,72,0.00,CLR,,0.03,WeatherDisplay:10.37,2013-09-13 01:55:00,
2013-09-12 21:00:00,67.9,58.5,29.94,NNE,15,9.0,14.0,72,0.00,CLR,,0.03,WeatherDisplay:10.37,2013-09-13 02:00:00,
2013-09-12 21:05:00,67.8,58.8,29.94,NNE,14,7.0,9.0,73,0.00,CLR,,0.03,WeatherDisplay:10.37,2013-09-13 02:05:00,
2013-09-12 21:10:00,67.6,58.6,29.94,NNW,333,2.7,4.6,73,0.00,CLR,,0.03,WeatherDisplay:10.37,2013-09-13 02:10:00,
2013-09-12 21:15:00,67.3,58.3,29.95,NNW,344,9.6,16.5,73,0.00,CLR,,0.03,WeatherDisplay:10.37,2013-09-13 02:15:00,
2013-09-12 21:20:00,67.1,58.2,29.94,NNE,25,6.4,6.4,73,0.00,CLR,,0.03,WeatherDisplay:10.37,2013-09-13 02:20:00,
2013-09-12 21:25:00,66.9,58.0,29.95,NNW,329,9.3,9.3,73,0.00,CLR,,0.03,WeatherDisplay:10.37,2013-09-13 02:25:00,
2013-09-12 21:30:00,66.8,57.9,29.95,North,7,14.0,14.0,73,0.00,CLR,,0.03,WeatherDisplay:10.37,2013-09-13 02:30:00,
2013-09-12 21:35:00,66.8,57.9,29.95,North,4,8.0,11.0,73,0.00,CLR,,0.03,WeatherDisplay:10.37,2013-09-13 02:35:00,
2013-09-12 21:40:00,66.6,57.7,29.95,NNE,26,7.1,8.1,73,0.00,CLR,,0.03,WeatherDisplay:10.37,2013-09-13 02:40:00,
2013-09-12 21:45:00,66.4,57.9,29.95,NNE,26,4.7,10.4,74,0.00,CLR,,0.03,WeatherDisplay:10.37,2013-09-13 02:45:00,
2013-09-12 21:50:00,66.3,57.8,29.95,NNE,30,7.3,9.2,74,0.00,CLR,,0.03,WeatherDisplay:10.37,2013-09-13 02:50:00,
2013-09-12 21:55:00,66.1,57.6,29.96,North,11,3.0,11.0,74,0.00,CLR,,0.03,WeatherDisplay:10.37,2013-09-13 02:55:00,
2013-09-12 22:00:00,66.0,57.5,29.95,NE,50,8.3,8.3,74,0.00,CLR,,0.03,WeatherDisplay:10.37,2013-09-13 03:00:00,
2013-09-12 22:05:00,65.8,57.7,29.95,North,8,5.0,9.0,75,0.00,CLR,,0.03,WeatherDisplay:10.37,2013-09-13 03:05:00,
2013-09-12 22:10:00,65.8,57.6,29.96,North,352,7.0,11.0,75,0.00,CLR,,0.03,WeatherDisplay:10.37,2013-09-13 03:10:00,
2013-09-12 22:15:00,65.5,57.4,29.96,North,355,6.0,8.1,75,0.00,CLR,,0.03,WeatherDisplay:10.37,2013-09-13 03:15:00,
2013-09-12 22:20:00,65.3,57.5,29.96,NE,34,4.1,4.6,76,0.00,CLR,,0.03,WeatherDisplay:10.37,2013-09-13 03:20:00,
2013-09-12 22:25:00,65.3,57.5,29.96,NNE,16,5.0,11.0,76,0.00,CLR,,0.03,WeatherDisplay:10.37,2013-09-13 03:25:00,
2013-09-12 22:30:00,65.2,57.4,29.96,NNE,30,11.5,11.5,76,0.00,CLR,,0.03,WeatherDisplay:10.37,2013-09-13 03:30:00,
2013-09-12 22:35:00,65.0,57.2,29.96,NNE,17,12.0,17.0,76,0.00,CLR,,0.03,WeatherDisplay:10.37,2013-09-13 03:35:00,
2013-09-12 22:40:00,64.8,57.1,29.96,NNE,23,13.1,13.8,76,0.00,CLR,,0.03,WeatherDisplay:10.37,2013-09-13 03:40:00,
2013-09-12 22:45:00,64.7,57.0,29.96,NNW,331,8.8,9.2,76,0.00,CLR,,0.03,WeatherDisplay:10.37,2013-09-13 03:45:00,
2013-09-12 22:50:00,64.7,57.0,29.96,North,350,4.8,8.1,76,0.00,CLR,,0.03,WeatherDisplay:10.37,2013-09-13 03:50:00,
2013-09-12 22:55:00,64.5,57.1,29.96,NNW,348,6.2,6.2,77,0.00,CLR,,0.03,WeatherDisplay:10.37,2013-09-13 03:55:00,
2013-09-12 23:00:00,64.3,56.9,29.96,North,5,6.0,8.1,77,0.00,CLR,,0.03,WeatherDisplay:10.37,2013-09-13 04:00:00,
2013-09-12 23:01:00,64.3,56.9,29.96,North,360,5.2,5.8,77,0.00,CLR,,0.03,WeatherDisplay:10.37,2013-09-13 04:01:00,
2013-09-12 23:06:00,64.2,56.8,29.96,NNW,330,6.6,6.6,77,0.00,CLR,,0.03,WeatherDisplay:10.37,2013-09-13 04:06:00,
2013-09-12 23:11:00,64.2,56.8,29.97,NNE,14,8.6,10.4,77,0.00,CLR,,0.03,WeatherDisplay:10.37,2013-09-13 04:11:00,
2013-09-12 23:16:00,64.0,56.6,29.97,North,5,1.1,5.8,77,0.00,CLR,,0.03,WeatherDisplay:10.37,2013-09-13 04:16:00,
2013-09-12 23:21:00,63.9,56.9,29.97,NNW,327,5.1,5.8,78,0.00,CLR,,0.03,WeatherDisplay:10.37,2013-09-13 04:21:00,
2013-09-12 23:26:00,63.7,56.7,29.97,North,360,4.0,5.8,78,0.00,CLR,,0.03,WeatherDisplay:10.37,2013-09-13 04:26:00,
2013-09-12 23:31:00,63.5,56.5,29.97,North,5,5.4,9.2,78,0.00,CLR,,0.03,WeatherDisplay:10.37,2013-09-13 04:31:00,
2013-09-12 23:36:00,63.4,56.4,29.97,NW,315,4.0,4.6,78,0.00,CLR,,0.03,WeatherDisplay:10.37,2013-09-13 04:36:00,
2013-09-12 23:41:00,63.2,56.6,29.97,NNW,330,5.6,8.1,79,0.00,CLR,,0.03,WeatherDisplay:10.37,2013-09-13 04:41:00,
2013-09-12 23:46:00,62.9,56.3,29.97,NNW,338,5.7,9.0,79,0.00,CLR,,0.03,WeatherDisplay:10.37,2013-09-13 04:46:00,
2013-09-12 23:51:00,62.7,56.1,29.97,NNW,338,2.4,5.8,79,0.00,CLR,,0.03,WeatherDisplay:10.37,2013-09-13 04:51:00,
2013-09-12 23:56:00,62.6,56.3,29.97,NW,318,4.9,5.8,80,0.00,CLR,,0.03,WeatherDisplay:10.37,2013-09-13 04:56:00,